Time;durP1;ratioP1;P1;durP2;ratioP2;P2;SDS_P1;SDS_P2;PMS_P1;PMS_P2;Temp;Humidity;BMP_temperature;BMP_pressure;BME280_temperature;BME280_humidity;BME280_pressure;Samples;Min_cycle;Max_cycle;Signal;HPM_P1;HPM_P2
2023/07/03 00:00:21;;;;;;;;;;;17.40;57.30;;;;;;5076825;28;19912;-84
2023/07/03 00:02:49;;;;;;;;;;;17.30;57.00;;;;;;5087718;28;19971;-84
2023/07/03 00:05:16;;;;;;;;;;;17.20;57.40;;;;;;5078692;28;19997;-84
2023/07/03 00:07:41;;;;;;;;;;;17.20;57.70;;;;;;5093155;28;19951;-84
2023/07/03 00:10:10;;;;;;;;;;;17.20;58.00;;;;;;5096416;28;19912;-84
2023/07/03 00:12:35;;;;;;;;;;;17.20;57.70;;;;;;5082253;28;19934;-84
2023/07/03 00:15:01;;;;;;;;;;;17.10;57.50;;;;;;5098490;28;19920;-85
2023/07/03 00:17:26;;;;;;;;;;;17.10;57.60;;;;;;5086094;28;19909;-84
2023/07/03 00:19:52;;;;;;;;;;;17.10;57.60;;;;;;5095967;28;19919;-85
2023/07/03 00:22:17;;;;;;;;;;;17.10;57.50;;;;;;5099178;28;19923;-85
2023/07/03 00:24:43;;;;;;;;;;;17.10;57.60;;;;;;5091154;28;19912;-85
2023/07/03 00:27:09;;;;;;;;;;;17.10;57.60;;;;;;5080551;28;19915;-85
2023/07/03 00:29:34;;;;;;;;;;;17.10;57.60;;;;;;5089419;28;19908;-85
2023/07/03 00:32:00;;;;;;;;;;;17.10;57.70;;;;;;5078100;28;20402;-85
2023/07/03 00:34:32;;;;;;;;;;;17.00;57.90;;;;;;5095328;28;19950;-85
2023/07/03 00:37:00;;;;;;;;;;;17.00;58.30;;;;;;5103415;28;19908;-85
2023/07/03 00:39:29;;;;;;;;;;;16.90;58.10;;;;;;5077264;28;19908;-85
2023/07/03 00:41:58;;;;;;;;;;;16.80;58.40;;;;;;5078520;28;19915;-85
2023/07/03 00:44:26;;;;;;;;;;;16.80;58.70;;;;;;5095098;28;19912;-85
2023/07/03 00:46:51;;;;;;;;;;;16.80;58.70;;;;;;5095394;28;19962;-84
2023/07/03 00:49:18;;;;;;;;;;;16.90;58.40;;;;;;5097945;28;19912;-85
2023/07/03 00:51:45;;;;;;;;;;;16.80;58.50;;;;;;5080213;28;19912;-85
2023/07/03 00:54:11;;;;;;;;;;;16.80;58.90;;;;;;5076360;28;19919;-85
2023/07/03 00:56:36;;;;;;;;;;;16.80;58.90;;;;;;5078739;28;19955;-85
2023/07/03 00:59:08;;;;;;;;;;;16.70;59.20;;;;;;5079898;28;19908;-84
2023/07/03 01:01:44;;;;;;;;;;;16.70;59.30;;;;;;5089547;28;20387;-85
2023/07/03 01:04:18;;;;;;;;;;;16.60;59.60;;;;;;5077377;28;20287;-85
2023/07/03 01:06:47;;;;;;;;;;;16.50;59.90;;;;;;5085770;28;20333;-84
2023/07/03 01:09:14;;;;;;;;;;;16.40;60.10;;;;;;5076868;28;19912;-85
2023/07/03 01:11:42;;;;;;;;;;;16.40;60.10;;;;;;5074510;28;19920;-84
2023/07/03 01:14:08;;;;;;;;;;;16.40;60.40;;;;;;5076605;28;19989;-85
2023/07/03 01:16:35;;;;;;;;;;;16.30;60.50;;;;;;5093777;28;19912;-85
2023/07/03 01:19:00;;;;;;;;;;;16.30;60.60;;;;;;5076537;28;19912;-85
2023/07/03 01:21:31;;;;;;;;;;;16.20;61.00;;;;;;5084037;28;20400;-85
2023/07/03 01:23:58;;;;;;;;;;;16.20;60.90;;;;;;5074919;28;20284;-85
2023/07/03 01:26:24;;;;;;;;;;;16.20;61.00;;;;;;5074617;28;19916;-84
2023/07/03 01:29:00;;;;;;;;;;;16.20;61.00;;;;;;5094539;28;19977;-85
2023/07/03 01:31:28;;;;;;;;;;;16.10;61.10;;;;;;5093584;28;19955;-85
2023/07/03 01:33:55;;;;;;;;;;;16.10;61.70;;;;;;5076086;28;19998;-85
2023/07/03 01:36:20;;;;;;;;;;;16.10;61.40;;;;;;5096258;28;19930;-85
2023/07/03 01:38:47;;;;;;;;;;;16.10;61.50;;;;;;5093228;28;19920;-85
2023/07/03 01:41:14;;;;;;;;;;;16.00;61.60;;;;;;5076098;28;19908;-85
2023/07/03 01:43:40;;;;;;;;;;;16.00;61.70;;;;;;5093434;28;19923;-84
2023/07/03 01:46:06;;;;;;;;;;;15.90;62.40;;;;;;5089910;28;19920;-85
2023/07/03 01:48:32;;;;;;;;;;;15.80;62.30;;;;;;5101203;28;20473;-85
2023/07/03 01:50:58;;;;;;;;;;;15.80;62.50;;;;;;5083655;28;20051;-85
2023/07/03 01:53:23;;;;;;;;;;;15.80;62.90;;;;;;5079890;28;20007;-85
2023/07/03 01:56:00;;;;;;;;;;;15.90;62.50;;;;;;5080555;28;19974;-85
2023/07/03 01:58:29;;;;;;;;;;;15.80;62.70;;;;;;5080583;28;19912;-85
2023/07/03 02:00:58;;;;;;;;;;;15.80;62.90;;;;;;5095337;28;19909;-85
2023/07/03 02:03:31;;;;;;;;;;;15.70;63.00;;;;;;5076562;28;20537;-85
2023/07/03 02:05:57;;;;;;;;;;;15.70;63.10;;;;;;5076600;28;19912;-85
2023/07/03 02:08:23;;;;;;;;;;;15.70;63.00;;;;;;5076816;28;19919;-85
2023/07/03 02:10:49;;;;;;;;;;;15.80;63.10;;;;;;5079986;28;19914;-84
2023/07/03 02:13:14;;;;;;;;;;;15.80;63.00;;;;;;5087125;28;19995;-85
2023/07/03 02:15:40;;;;;;;;;;;15.70;63.20;;;;;;5093439;28;19947;-85
2023/07/03 02:18:05;;;;;;;;;;;15.70;63.40;;;;;;5077122;28;19908;-84
2023/07/03 02:20:31;;;;;;;;;;;15.70;63.50;;;;;;5077196;28;19915;-85
2023/07/03 02:22:56;;;;;;;;;;;15.70;63.60;;;;;;5095948;28;20368;-84
2023/07/03 02:25:22;;;;;;;;;;;15.60;64.00;;;;;;5075168;28;20466;-85
2023/07/03 02:27:50;;;;;;;;;;;15.70;63.80;;;;;;5105533;28;19926;-84
2023/07/03 02:30:15;;;;;;;;;;;15.60;64.20;;;;;;5094694;28;19923;-85
2023/07/03 02:32:41;;;;;;;;;;;15.60;64.10;;;;;;5078832;28;19920;-85
2023/07/03 02:35:07;;;;;;;;;;;15.60;64.40;;;;;;5060273;22;20032;-85
2023/07/03 02:37:33;;;;;;;;;;;15.60;64.10;;;;;;5005534;28;19999;-85
2023/07/03 02:39:58;;;;;;;;;;;15.60;64.70;;;;;;5002463;23;19997;-77
2023/07/03 02:42:24;;;;;;;;;;;15.60;64.50;;;;;;4973979;28;19925;-79
2023/07/03 02:44:50;;;;;;;;;;;15.70;64.30;;;;;;4967548;28;19915;-79
2023/07/03 02:47:15;;;;;;;;;;;15.60;64.40;;;;;;4950713;28;19923;-79
2023/07/03 02:49:41;;;;;;;;;;;15.60;64.30;;;;;;4967529;28;19921;-78
2023/07/03 02:52:06;;;;;;;;;;;15.60;64.70;;;;;;4942909;28;19915;-80
2023/07/03 02:54:32;;;;;;;;;;;15.60;64.70;;;;;;4960169;28;19996;-78
2023/07/03 02:56:57;;;;;;;;;;;15.60;64.90;;;;;;4947713;29;19914;-79
2023/07/03 02:59:23;;;;;;;;;;;15.50;65.10;;;;;;4968010;28;19919;-78
2023/07/03 03:01:49;;;;;;;;;;;15.50;65.40;;;;;;4961073;28;20343;-79
2023/07/03 03:04:16;;;;;;;;;;;15.60;65.20;;;;;;4949636;28;19935;-78
2023/07/03 03:06:42;;;;;;;;;;;15.50;65.60;;;;;;4940848;29;19961;-78
2023/07/03 03:09:09;;;;;;;;;;;15.50;65.60;;;;;;4955424;28;19911;-79
2023/07/03 03:11:34;;;;;;;;;;;15.60;65.60;;;;;;4967753;28;19915;-79
2023/07/03 03:14:00;;;;;;;;;;;15.60;65.40;;;;;;4970663;28;19911;-79
2023/07/03 03:16:26;;;;;;;;;;;15.50;65.70;;;;;;4949690;28;20044;-77
2023/07/03 03:18:51;;;;;;;;;;;15.50;65.80;;;;;;4968973;28;19911;-79
2023/07/03 03:21:17;;;;;;;;;;;15.50;66.60;;;;;;4969104;28;19917;-79
2023/07/03 03:23:43;;;;;;;;;;;15.50;65.80;;;;;;4968810;28;19980;-79
2023/07/03 03:26:08;;;;;;;;;;;15.50;66.10;;;;;;4947967;29;19991;-79
2023/07/03 03:28:34;;;;;;;;;;;15.50;66.50;;;;;;4970311;28;19915;-80
2023/07/03 03:30:59;;;;;;;;;;;15.50;66.00;;;;;;4950152;28;19922;-79
2023/07/03 03:33:25;;;;;;;;;;;15.40;66.60;;;;;;4969768;28;20370;-79
2023/07/03 03:35:51;;;;;;;;;;;15.50;66.50;;;;;;4958147;28;19911;-79
2023/07/03 03:38:16;;;;;;;;;;;15.40;66.90;;;;;;4967790;28;19957;-79
2023/07/03 03:40:57;;;;;;;;;;;15.30;67.00;;;;;;4954058;28;19986;-78
2023/07/03 03:43:23;;;;;;;;;;;15.40;66.90;;;;;;4969509;28;19960;-79
2023/07/03 03:46:01;;;;;;;;;;;15.20;67.60;;;;;;4952267;28;19918;-79
2023/07/03 03:48:27;;;;;;;;;;;15.20;67.70;;;;;;4978258;28;19915;-79
2023/07/03 03:50:53;;;;;;;;;;;15.30;67.60;;;;;;4945001;29;19922;-79
2023/07/03 03:53:19;;;;;;;;;;;15.30;67.50;;;;;;4955474;29;19911;-81
2023/07/03 03:55:47;;;;;;;;;;;15.20;67.80;;;;;;4951286;28;19915;-79
2023/07/03 03:58:15;;;;;;;;;;;15.20;68.10;;;;;;4947496;29;20351;-79
2023/07/03 04:00:41;;;;;;;;;;;15.30;68.00;;;;;;4969187;28;19922;-79
2023/07/03 04:03:06;;;;;;;;;;;15.30;68.10;;;;;;4948474;29;19930;-79
2023/07/03 04:05:32;;;;;;;;;;;15.30;68.20;;;;;;4952237;28;20046;-79
2023/07/03 04:07:57;;;;;;;;;;;15.20;68.30;;;;;;4970335;28;20445;-79
2023/07/03 04:10:23;;;;;;;;;;;15.10;68.90;;;;;;4969518;28;19914;-78
2023/07/03 04:12:48;;;;;;;;;;;15.20;69.00;;;;;;4961482;28;20374;-79
2023/07/03 04:15:14;;;;;;;;;;;15.10;69.00;;;;;;4957139;28;19955;-79
2023/07/03 04:17:39;;;;;;;;;;;15.00;69.50;;;;;;4964895;28;20009;-79
2023/07/03 04:20:10;;;;;;;;;;;15.00;69.60;;;;;;4970145;28;20505;-79
2023/07/03 04:22:35;;;;;;;;;;;15.00;69.80;;;;;;4963858;28;19962;-79
2023/07/03 04:25:02;;;;;;;;;;;15.00;70.00;;;;;;4940029;28;19921;-79
2023/07/03 04:27:27;;;;;;;;;;;14.90;70.30;;;;;;4953761;28;19924;-79
2023/07/03 04:29:53;;;;;;;;;;;15.00;70.40;;;;;;4954778;28;20432;-79
2023/07/03 04:32:19;;;;;;;;;;;14.90;70.80;;;;;;4963687;28;20238;-79
2023/07/03 04:34:44;;;;;;;;;;;15.00;70.90;;;;;;4955214;28;19918;-79
2023/07/03 04:37:10;;;;;;;;;;;15.00;70.90;;;;;;4969752;28;19971;-79
2023/07/03 04:39:35;;;;;;;;;;;15.10;70.60;;;;;;4968837;28;19998;-79
2023/07/03 04:42:00;;;;;;;;;;;15.10;70.80;;;;;;4968949;28;19926;-79
2023/07/03 04:44:26;;;;;;;;;;;15.10;70.90;;;;;;4937291;29;19962;-79
2023/07/03 04:46:55;;;;;;;;;;;15.20;70.70;;;;;;4949419;29;20582;-79
2023/07/03 04:49:23;;;;;;;;;;;15.20;70.80;;;;;;4951969;29;19969;-78
2023/07/03 04:51:52;;;;;;;;;;;15.20;70.80;;;;;;4970271;28;19921;-80
2023/07/03 04:54:18;;;;;;;;;;;15.20;71.20;;;;;;4955583;28;19941;-79
2023/07/03 04:56:44;;;;;;;;;;;15.30;71.40;;;;;;4953765;28;20017;-79
2023/07/03 04:59:10;;;;;;;;;;;15.30;71.00;;;;;;4945158;28;19985;-79
2023/07/03 05:01:36;;;;;;;;;;;15.50;70.80;;;;;;4947889;29;19932;-79
2023/07/03 05:04:01;;;;;;;;;;;15.50;71.00;;;;;;4969597;28;20448;-79
2023/07/03 05:06:27;;;;;;;;;;;15.50;71.00;;;;;;4945038;28;19919;-79
2023/07/03 05:08:53;;;;;;;;;;;15.60;71.00;;;;;;4959680;28;19915;-80
2023/07/03 05:11:18;;;;;;;;;;;15.60;71.10;;;;;;4958015;28;19915;-79
2023/07/03 05:13:44;;;;;;;;;;;15.60;70.90;;;;;;4947942;29;19922;-79
2023/07/03 05:16:09;;;;;;;;;;;15.70;71.20;;;;;;4944843;29;19915;-79
2023/07/03 05:18:35;;;;;;;;;;;15.80;70.70;;;;;;4946304;28;19926;-79
2023/07/03 05:21:00;;;;;;;;;;;15.80;71.00;;;;;;4951316;29;19977;-79
2023/07/03 05:23:26;;;;;;;;;;;16.00;70.50;;;;;;4951902;28;20009;-79
2023/07/03 05:25:51;;;;;;;;;;;16.10;70.00;;;;;;4949875;29;19963;-79
2023/07/03 05:28:17;;;;;;;;;;;16.30;70.20;;;;;;4970720;28;20352;-79
2023/07/03 05:30:42;;;;;;;;;;;16.30;69.90;;;;;;4963582;28;19918;-79
2023/07/03 05:33:10;;;;;;;;;;;16.20;69.70;;;;;;4952813;29;20236;-79
2023/07/03 05:35:36;;;;;;;;;;;16.30;69.60;;;;;;4954246;28;19910;-79
2023/07/03 05:38:02;;;;;;;;;;;16.20;69.70;;;;;;4946722;28;19952;-79
2023/07/03 05:40:28;;;;;;;;;;;16.20;70.00;;;;;;4970600;28;19929;-79
2023/07/03 05:42:53;;;;;;;;;;;16.40;69.60;;;;;;4969890;28;19918;-80
2023/07/03 05:45:19;;;;;;;;;;;16.50;69.70;;;;;;4946610;28;19949;-79
2023/07/03 05:47:44;;;;;;;;;;;16.60;68.40;;;;;;4953041;28;19914;-79
2023/07/03 05:50:10;;;;;;;;;;;16.60;68.20;;;;;;4954266;28;20491;-79
2023/07/03 05:52:36;;;;;;;;;;;16.50;68.80;;;;;;4971082;28;19910;-79
2023/07/03 05:55:02;;;;;;;;;;;16.50;69.00;;;;;;4949726;28;19942;-80
2023/07/03 05:57:27;;;;;;;;;;;16.50;69.20;;;;;;4950255;28;20383;-80
2023/07/03 05:59:54;;;;;;;;;;;16.40;69.30;;;;;;4947376;29;19925;-79
2023/07/03 06:02:20;;;;;;;;;;;16.30;69.60;;;;;;4953971;29;19921;-80
2023/07/03 06:04:45;;;;;;;;;;;16.30;69.70;;;;;;4954342;28;20008;-79
2023/07/03 06:07:11;;;;;;;;;;;16.30;70.00;;;;;;4954181;28;19915;-80
2023/07/03 06:09:37;;;;;;;;;;;16.40;70.20;;;;;;4944383;28;20012;-79
2023/07/03 06:12:03;;;;;;;;;;;16.40;70.20;;;;;;4949442;28;19950;-80
2023/07/03 06:14:29;;;;;;;;;;;16.40;70.20;;;;;;4948525;28;20455;-79
2023/07/03 06:16:56;;;;;;;;;;;16.50;70.40;;;;;;4946148;28;20033;-79
2023/07/03 06:19:21;;;;;;;;;;;16.50;69.90;;;;;;4948155;28;20374;-80
2023/07/03 06:21:47;;;;;;;;;;;16.60;70.10;;;;;;4967684;28;19918;-79
2023/07/03 06:24:13;;;;;;;;;;;16.60;70.10;;;;;;4963693;28;19914;-81
2023/07/03 06:26:39;;;;;;;;;;;16.60;70.30;;;;;;4950563;28;20348;-79
2023/07/03 06:29:05;;;;;;;;;;;16.60;70.20;;;;;;4949877;28;19964;-79
2023/07/03 06:31:31;;;;;;;;;;;16.60;70.00;;;;;;4945217;29;19915;-79
2023/07/03 06:33:56;;;;;;;;;;;16.80;70.20;;;;;;4967760;28;19997;-80
2023/07/03 06:36:22;;;;;;;;;;;16.70;69.70;;;;;;4966300;28;20354;-80
2023/07/03 06:38:54;;;;;;;;;;;16.70;69.50;;;;;;4947930;28;19930;-79
2023/07/03 06:41:20;;;;;;;;;;;16.50;70.20;;;;;;4947779;29;19914;-79
2023/07/03 06:43:46;;;;;;;;;;;16.60;70.30;;;;;;4950093;28;19915;-79
2023/07/03 06:46:11;;;;;;;;;;;16.80;69.90;;;;;;4967282;28;19919;-79
2023/07/03 06:48:37;;;;;;;;;;;16.90;69.50;;;;;;4949919;28;19945;-81
2023/07/03 06:51:04;;;;;;;;;;;17.00;69.40;;;;;;4970592;28;19974;-82
2023/07/03 06:53:29;;;;;;;;;;;17.10;68.70;;;;;;4974224;28;19910;-82
2023/07/03 06:55:55;;;;;;;;;;;17.10;68.70;;;;;;4943502;28;19937;-80
2023/07/03 06:58:21;;;;;;;;;;;17.00;69.40;;;;;;4965781;28;19941;-80
2023/07/03 07:00:46;;;;;;;;;;;17.10;69.10;;;;;;4952807;28;19915;-79
2023/07/03 07:03:12;;;;;;;;;;;17.30;69.00;;;;;;4955449;28;19995;-80
2023/07/03 07:05:37;;;;;;;;;;;17.50;67.90;;;;;;4942145;28;19927;-79
2023/07/03 07:08:03;;;;;;;;;;;17.60;67.70;;;;;;4978576;28;20250;-80
2023/07/03 07:10:28;;;;;;;;;;;17.50;67.90;;;;;;4936143;29;19958;-79
2023/07/03 07:12:54;;;;;;;;;;;17.50;67.60;;;;;;4951782;28;19922;-80
2023/07/03 07:15:19;;;;;;;;;;;17.50;67.30;;;;;;4949613;28;19934;-81
2023/07/03 07:17:45;;;;;;;;;;;17.50;67.60;;;;;;4961668;28;20329;-82
2023/07/03 07:20:11;;;;;;;;;;;17.40;67.50;;;;;;4949266;29;19921;-80
2023/07/03 07:22:36;;;;;;;;;;;17.50;67.70;;;;;;4964869;28;19915;-81
2023/07/03 07:25:03;;;;;;;;;;;17.60;67.70;;;;;;4955016;28;20301;-80
2023/07/03 07:27:28;;;;;;;;;;;17.60;66.70;;;;;;4952657;28;19914;-82
2023/07/03 07:29:54;;;;;;;;;;;17.60;66.80;;;;;;4955764;28;19923;-80
2023/07/03 07:32:21;;;;;;;;;;;17.50;67.60;;;;;;4962684;28;19998;-81
2023/07/03 07:34:47;;;;;;;;;;;17.30;68.00;;;;;;4959732;28;20385;-82
2023/07/03 07:37:13;;;;;;;;;;;17.30;67.70;;;;;;4956377;28;19915;-82
2023/07/03 07:39:44;;;;;;;;;;;17.40;68.00;;;;;;4951178;28;19926;-81
2023/07/03 07:42:10;;;;;;;;;;;17.50;67.50;;;;;;4948067;28;20636;-83
2023/07/03 07:44:35;;;;;;;;;;;17.50;67.10;;;;;;4966429;28;19923;-83
2023/07/03 07:47:01;;;;;;;;;;;17.60;67.40;;;;;;4957917;28;20014;-82
2023/07/03 07:49:26;;;;;;;;;;;17.70;66.80;;;;;;4966811;28;19914;-81
2023/07/03 07:51:52;;;;;;;;;;;17.80;67.00;;;;;;4948386;28;19915;-82
2023/07/03 07:54:17;;;;;;;;;;;17.80;66.70;;;;;;4953062;28;20247;-82
2023/07/03 07:56:43;;;;;;;;;;;18.00;66.00;;;;;;4958191;28;19930;-82
2023/07/03 07:59:08;;;;;;;;;;;18.10;65.40;;;;;;4969376;28;19911;-82
2023/07/03 08:01:34;;;;;;;;;;;18.00;64.80;;;;;;4966866;28;19950;-82
2023/07/03 08:03:59;;;;;;;;;;;17.90;64.80;;;;;;4948450;28;20013;-81
2023/07/03 08:06:25;;;;;;;;;;;18.00;64.90;;;;;;4962846;28;19918;-82
2023/07/03 08:08:51;;;;;;;;;;;18.00;64.50;;;;;;4970898;28;19915;-83
2023/07/03 08:11:16;;;;;;;;;;;18.20;63.60;;;;;;4952301;28;20401;-83
2023/07/03 08:13:42;;;;;;;;;;;18.30;63.50;;;;;;4941734;29;19919;-82
2023/07/03 08:16:08;;;;;;;;;;;18.40;62.90;;;;;;4952735;28;19993;-83
2023/07/03 08:18:34;;;;;;;;;;;18.50;61.90;;;;;;4954070;28;20354;-82
2023/07/03 08:20:59;;;;;;;;;;;18.50;61.90;;;;;;4958933;28;19921;-82
2023/07/03 08:23:25;;;;;;;;;;;18.50;61.80;;;;;;4963173;28;20374;-81
2023/07/03 08:25:51;;;;;;;;;;;18.40;61.80;;;;;;4967483;28;19956;-80
2023/07/03 08:28:17;;;;;;;;;;;18.20;62.50;;;;;;4960016;28;19946;-83
2023/07/03 08:30:42;;;;;;;;;;;18.20;62.90;;;;;;4954483;28;19959;-83
2023/07/03 08:33:08;;;;;;;;;;;18.10;62.60;;;;;;4953621;28;19911;-81
2023/07/03 08:35:33;;;;;;;;;;;18.00;63.10;;;;;;4936629;28;20594;-81
2023/07/03 08:37:59;;;;;;;;;;;17.80;63.70;;;;;;4966522;28;19950;-83
2023/07/03 08:40:24;;;;;;;;;;;17.90;63.20;;;;;;4954682;28;20037;-82
2023/07/03 08:42:54;;;;;;;;;;;17.90;63.10;;;;;;4956942;28;20390;-82
2023/07/03 08:45:21;;;;;;;;;;;17.90;64.10;;;;;;4955952;28;19968;-81
2023/07/03 08:47:48;;;;;;;;;;;17.90;63.60;;;;;;4968033;28;19958;-82
2023/07/03 08:50:15;;;;;;;;;;;17.90;64.00;;;;;;4958192;28;19922;-82
2023/07/03 08:52:47;;;;;;;;;;;18.00;63.90;;;;;;4949493;28;19911;-82
2023/07/03 08:55:14;;;;;;;;;;;18.00;63.70;;;;;;4971803;28;20389;-82
2023/07/03 08:57:40;;;;;;;;;;;17.90;63.20;;;;;;4947151;28;19987;-82
2023/07/03 09:00:10;;;;;;;;;;;17.80;65.40;;;;;;4962193;28;19922;-82
2023/07/03 09:02:55;;;;;;;;;;;17.80;64.90;;;;;;4937516;29;19918;-82
2023/07/03 09:05:27;;;;;;;;;;;17.80;64.80;;;;;;4940036;28;19934;-80
2023/07/03 09:07:55;;;;;;;;;;;17.80;63.90;;;;;;4949501;28;19921;-83
2023/07/03 09:10:33;;;;;;;;;;;17.90;63.30;;;;;;4968748;28;19917;-81
2023/07/03 09:12:58;;;;;;;;;;;17.90;62.40;;;;;;4942545;28;19921;-81
2023/07/03 09:15:28;;;;;;;;;;;18.00;62.40;;;;;;4967904;28;20473;-82
2023/07/03 09:17:54;;;;;;;;;;;17.90;62.00;;;;;;4968491;28;19910;-82
2023/07/03 09:20:22;;;;;;;;;;;18.00;61.20;;;;;;4953168;28;19915;-82
2023/07/03 09:22:57;;;;;;;;;;;18.10;62.10;;;;;;4969157;28;19998;-83
2023/07/03 09:25:34;;;;;;;;;;;18.30;60.50;;;;;;4952218;28;19923;-81
2023/07/03 09:28:01;;;;;;;;;;;18.30;60.10;;;;;;4950008;28;19924;-82
2023/07/03 09:30:27;;;;;;;;;;;18.30;60.20;;;;;;4954556;28;19942;-83
2023/07/03 09:32:52;;;;;;;;;;;18.30;60.10;;;;;;4954408;28;20389;-82
2023/07/03 09:35:21;;;;;;;;;;;18.20;60.50;;;;;;4952661;28;19933;-82
2023/07/03 09:37:48;;;;;;;;;;;18.30;59.90;;;;;;4952625;28;19929;-83
2023/07/03 09:40:20;;;;;;;;;;;18.40;60.00;;;;;;4949221;28;19919;-81
2023/07/03 09:42:46;;;;;;;;;;;18.60;59.30;;;;;;4946738;28;19921;-83
2023/07/03 09:45:21;;;;;;;;;;;18.80;57.50;;;;;;4954494;28;19911;-82
2023/07/03 09:47:55;;;;;;;;;;;18.90;56.30;;;;;;4969792;28;19994;-82
2023/07/03 09:50:28;;;;;;;;;;;18.80;56.50;;;;;;4953306;28;20401;-81
2023/07/03 09:53:04;;;;;;;;;;;18.70;56.70;;;;;;4965012;28;20362;-82
2023/07/03 09:55:30;;;;;;;;;;;18.70;56.90;;;;;;4954370;28;19914;-82
2023/07/03 09:57:56;;;;;;;;;;;18.90;56.00;;;;;;4970865;28;19917;-84
2023/07/03 10:00:23;;;;;;;;;;;19.10;55.00;;;;;;4958713;28;20070;-82
2023/07/03 10:02:52;;;;;;;;;;;19.50;53.20;;;;;;4940129;29;20290;-82
2023/07/03 10:05:21;;;;;;;;;;;19.60;52.10;;;;;;4953088;29;19918;-83
2023/07/03 10:07:46;;;;;;;;;;;19.70;51.30;;;;;;4969144;23;19933;-87
2023/07/03 10:10:19;;;;;;;;;;;19.70;50.80;;;;;;4962615;28;19956;-86
2023/07/03 10:12:47;;;;;;;;;;;19.60;50.90;;;;;;4982054;28;19958;-88
2023/07/03 10:15:13;;;;;;;;;;;19.50;50.90;;;;;;5005835;28;19910;-88
2023/07/03 10:17:47;;;;;;;;;;;19.50;51.40;;;;;;4970550;28;20422;-88
2023/07/03 10:20:23;;;;;;;;;;;19.60;51.80;;;;;;4967346;28;19953;-88
2023/07/03 10:22:50;;;;;;;;;;;19.50;52.10;;;;;;4961976;28;19944;-88
2023/07/03 10:25:18;;;;;;;;;;;19.60;51.50;;;;;;5057447;28;19923;-88
2023/07/03 10:27:45;;;;;;;;;;;19.30;51.80;;;;;;4980738;28;19918;-87
2023/07/03 10:30:15;;;;;;;;;;;19.40;50.80;;;;;;4969727;28;19910;-88
2023/07/03 10:32:41;;;;;;;;;;;19.50;50.00;;;;;;4962073;28;19914;-88
2023/07/03 10:35:13;;;;;;;;;;;19.60;49.50;;;;;;4957770;28;19996;-87
2023/07/03 10:37:47;;;;;;;;;;;19.90;49.30;;;;;;4977224;28;19941;-87
2023/07/03 10:40:17;;;;;;;;;;;20.10;48.60;;;;;;4966373;28;19922;-87
2023/07/03 10:42:47;;;;;;;;;;;20.10;47.40;;;;;;4962852;28;19918;-87
2023/07/03 10:45:13;;;;;;;;;;;20.10;47.60;;;;;;4967606;28;19911;-87
2023/07/03 10:47:46;;;;;;;;;;;20.00;48.10;;;;;;4970481;28;20248;-87
2023/07/03 10:50:12;;;;;;;;;;;20.00;48.10;;;;;;4981426;28;19914;-88
2023/07/03 10:53:00;;;;;;;;;;;19.90;48.80;;;;;;4966866;28;20371;-87
2023/07/03 10:55:34;;;;;;;;;;;20.10;49.10;;;;;;4961071;28;19932;-88
2023/07/03 10:58:02;;;;;;;;;;;20.30;49.00;;;;;;4969667;28;19911;-88
2023/07/03 11:00:39;;;;;;;;;;;20.50;49.50;;;;;;4973113;28;20312;-88
2023/07/03 11:03:37;;;;;;;;;;;20.60;47.70;;;;;;4970880;28;19910;-88
2023/07/03 11:06:04;;;;;;;;;;;20.70;47.40;;;;;;4971763;28;19918;-88
2023/07/03 11:11:49;;;;;;;;;;;20.90;47.40;;;;;;4959282;28;20009;-88
2023/07/03 11:14:23;;;;;;;;;;;21.00;45.50;;;;;;4970562;28;20043;-88
2023/07/03 11:17:00;;;;;;;;;;;20.90;45.80;;;;;;4970964;28;20263;-88
2023/07/03 11:19:41;;;;;;;;;;;20.90;45.40;;;;;;4971298;28;19918;-88
2023/07/03 11:22:06;;;;;;;;;;;20.80;45.40;;;;;;4971023;28;19923;-88
2023/07/03 11:24:52;;;;;;;;;;;20.70;46.20;;;;;;5055344;28;19985;-88
2023/07/03 11:27:35;;;;;;;;;;;20.80;46.50;;;;;;4978202;28;19914;-88
2023/07/03 11:30:01;;;;;;;;;;;20.90;47.10;;;;;;4973402;28;19910;-87
2023/07/03 11:32:26;;;;;;;;;;;21.10;46.10;;;;;;4976674;28;19960;-87
2023/07/03 11:34:52;;;;;;;;;;;21.10;45.90;;;;;;4971431;28;20403;-88
2023/07/03 11:37:31;;;;;;;;;;;21.10;46.50;;;;;;4970850;28;19918;-88
2023/07/03 11:39:56;;;;;;;;;;;21.10;44.90;;;;;;4972820;28;19914;-88
2023/07/03 11:42:23;;;;;;;;;;;21.10;44.90;;;;;;4970518;28;20390;-88
2023/07/03 11:44:58;;;;;;;;;;;21.00;43.70;;;;;;4962148;28;19914;-88
2023/07/03 11:47:24;;;;;;;;;;;20.90;43.90;;;;;;4961814;28;19918;-88
2023/07/03 11:49:57;;;;;;;;;;;21.00;44.70;;;;;;4978252;28;19915;-88
2023/07/03 11:52:30;;;;;;;;;;;20.90;45.40;;;;;;4969873;28;19966;-88
2023/07/03 11:55:02;;;;;;;;;;;20.80;46.10;;;;;;4967120;28;19917;-88
2023/07/03 11:57:35;;;;;;;;;;;20.80;45.90;;;;;;4970565;28;19910;-88
2023/07/03 12:00:12;;;;;;;;;;;20.80;47.60;;;;;;4969409;28;19915;-87
2023/07/03 12:02:37;;;;;;;;;;;21.00;47.40;;;;;;4959178;28;19937;-88
2023/07/03 12:05:03;;;;;;;;;;;21.40;47.10;;;;;;4980971;28;19915;-88
2023/07/03 12:07:29;;;;;;;;;;;21.60;46.60;;;;;;4964348;28;20407;-88
2023/07/03 12:10:14;;;;;;;;;;;21.50;47.20;;;;;;4979726;28;19918;-87
2023/07/03 12:12:40;;;;;;;;;;;21.50;47.60;;;;;;4956234;28;20390;-88
2023/07/03 12:15:11;;;;;;;;;;;21.50;47.80;;;;;;4965151;28;19918;-88
2023/07/03 12:17:37;;;;;;;;;;;21.50;47.40;;;;;;4963321;28;19914;-87
2023/07/03 12:20:07;;;;;;;;;;;21.60;47.60;;;;;;4963792;28;19924;-89
2023/07/03 12:22:42;;;;;;;;;;;21.60;47.50;;;;;;4963189;28;19954;-88
2023/07/03 12:25:12;;;;;;;;;;;21.70;47.80;;;;;;4973937;28;19915;-88
2023/07/03 12:27:39;;;;;;;;;;;21.50;48.10;;;;;;4972985;28;20371;-88
2023/07/03 12:30:05;;;;;;;;;;;21.20;48.50;;;;;;4963821;28;19946;-88
2023/07/03 12:32:33;;;;;;;;;;;21.10;48.90;;;;;;4970194;28;19937;-88
2023/07/03 12:35:09;;;;;;;;;;;20.80;49.00;;;;;;4961072;28;19926;-87
2023/07/03 12:37:34;;;;;;;;;;;20.50;49.80;;;;;;4969994;28;19914;-88
2023/07/03 12:40:00;;;;;;;;;;;20.30;49.90;;;;;;4971434;28;20389;-88
2023/07/03 12:42:25;;;;;;;;;;;20.10;50.40;;;;;;4971401;28;19914;-88
2023/07/03 12:44:51;;;;;;;;;;;20.00;51.50;;;;;;4968013;28;20352;-88
2023/07/03 12:47:18;;;;;;;;;;;19.80;51.30;;;;;;4971806;28;20378;-87
2023/07/03 12:49:47;;;;;;;;;;;19.80;51.90;;;;;;4969574;28;19911;-88
2023/07/03 12:52:13;;;;;;;;;;;19.90;51.70;;;;;;4976825;28;19975;-88
2023/07/03 12:54:38;;;;;;;;;;;20.00;51.70;;;;;;4969380;28;20268;-87
2023/07/03 12:57:06;;;;;;;;;;;20.10;51.20;;;;;;4969615;28;19910;-87
2023/07/03 12:59:31;;;;;;;;;;;20.10;51.90;;;;;;4965541;28;19914;-87
2023/07/03 13:01:58;;;;;;;;;;;20.20;51.40;;;;;;4966915;28;19914;-88
2023/07/03 13:04:28;;;;;;;;;;;20.30;51.60;;;;;;4976163;28;19967;-88
2023/07/03 13:06:53;;;;;;;;;;;20.50;51.70;;;;;;5067263;28;19918;-88
2023/07/03 13:09:19;;;;;;;;;;;20.60;52.10;;;;;;4971032;28;20314;-87
2023/07/03 13:11:44;;;;;;;;;;;20.90;51.90;;;;;;4976039;28;20306;-87
2023/07/03 13:14:10;;;;;;;;;;;20.90;50.90;;;;;;5054384;28;19914;-88
2023/07/03 13:16:35;;;;;;;;;;;21.00;51.60;;;;;;4975490;28;19918;-87
2023/07/03 13:19:01;;;;;;;;;;;21.20;51.50;;;;;;5047520;28;19980;-88
2023/07/03 13:21:27;;;;;;;;;;;21.20;49.60;;;;;;4968805;28;20380;-87
2023/07/03 13:23:53;;;;;;;;;;;21.30;48.80;;;;;;4959368;28;19914;-88
2023/07/03 13:26:22;;;;;;;;;;;21.30;48.40;;;;;;4960614;28;19921;-88
2023/07/03 13:28:55;;;;;;;;;;;21.30;48.30;;;;;;4965532;28;19914;-88
2023/07/03 13:31:22;;;;;;;;;;;21.30;49.00;;;;;;4968929;28;19914;-88
2023/07/03 13:34:02;;;;;;;;;;;21.20;49.10;;;;;;4976735;28;19949;-88
2023/07/03 13:36:32;;;;;;;;;;;21.10;49.30;;;;;;4973256;28;19972;-88
2023/07/03 13:39:06;;;;;;;;;;;21.30;49.80;;;;;;4964308;28;19919;-87
2023/07/03 13:41:32;;;;;;;;;;;21.40;49.40;;;;;;4968202;28;19914;-88
2023/07/03 13:43:57;;;;;;;;;;;21.50;48.60;;;;;;4964605;28;20438;-87
2023/07/03 13:46:23;;;;;;;;;;;21.60;49.30;;;;;;4963289;28;20295;-88
2023/07/03 13:48:49;;;;;;;;;;;21.60;48.70;;;;;;4970001;28;20591;-88
2023/07/03 13:51:14;;;;;;;;;;;21.70;49.60;;;;;;4969336;28;19922;-88
2023/07/03 13:53:40;;;;;;;;;;;21.60;49.60;;;;;;4964737;28;20315;-88
2023/07/03 13:56:05;;;;;;;;;;;21.60;47.80;;;;;;4962783;28;20009;-88
2023/07/03 13:58:31;;;;;;;;;;;21.60;46.80;;;;;;5052912;28;19914;-87
2023/07/03 14:00:57;;;;;;;;;;;21.70;45.60;;;;;;4970478;28;20455;-88
2023/07/03 14:03:22;;;;;;;;;;;21.80;44.00;;;;;;4966856;28;19964;-88
2023/07/03 14:05:49;;;;;;;;;;;22.00;44.40;;;;;;4963879;28;20024;-88
2023/07/03 14:08:15;;;;;;;;;;;22.10;44.40;;;;;;4960742;28;19983;-88
2023/07/03 14:10:42;;;;;;;;;;;22.30;45.00;;;;;;4959142;28;21260;-88
2023/07/03 14:13:08;;;;;;;;;;;22.50;44.80;;;;;;4962167;28;20001;-88
2023/07/03 14:15:37;;;;;;;;;;;22.40;44.30;;;;;;4963117;28;19920;-88
2023/07/03 14:18:03;;;;;;;;;;;22.30;45.00;;;;;;4958193;28;19919;-88
2023/07/03 14:20:29;;;;;;;;;;;22.30;44.40;;;;;;4968458;28;19910;-89